Crown Princess — ZCDM6 — position and weather

sailwx.info

Track history (hours):
 
Tides and Currents Weather Stations Pressure Air Temp Water Temp Dewpoint Dewpoint Depression Visibility Wind Speed Wind Dir Waves Ship Positions

Crown Princess

Last reported at 2019-Apr-25 15:29 UTC. Time now 2019-Apr-25 15:49 UTC.
Position N 38°42' W 009°08'.

Type: Passenger vessel. MMSI: 310500000.

Date/timePositionNaut miles runAvg speedWind from/ knotsBaromVisibWave heightAir tempDewpointWater temp
2019-Apr-25 15:29N 38°42' W 009°08'0 0.0
2019-Apr-25 14:59N 38°42' W 009°08'0 0.0
2019-Apr-25 14:29N 38°42' W 009°08'0 0.0
2019-Apr-25 13:59N 38°42' W 009°08'0 0.0
2019-Apr-25 13:29N 38°42' W 009°08'0 0.0
2019-Apr-25 12:59N 38°42' W 009°08'0 0.0
2019-Apr-25 12:29N 38°42' W 009°08'0 0.0
2019-Apr-25 11:59N 38°42' W 009°08'0 0.0
2019-Apr-25 11:29N 38°42' W 009°08'0 0.0
2019-Apr-25 10:59N 38°42' W 009°08'0 0.0
2019-Apr-25 10:29N 38°42' W 009°08'0 0.4
2019-Apr-25 10:00N 38°43' W 009°07'2 4.9
2019-Apr-25 09:30N 38°41' W 009°10'510.0
2019-Apr-25 09:00N 38°41' W 009°17'714.4
2019-Apr-25 08:30N 38°36' W 009°23'817.0
2019-Apr-25 08:00N 38°31' W 009°31'816.7
2019-Apr-25 07:30N 38°28' W 009°42'918.2
2019-Apr-25 07:00N 38°27' W 009°53'918.2
2019-Apr-25 06:30N 38°26' W 010°05'918.0
2019-Apr-25 06:00N 38°23' W 010°16'14818.5
2019-Apr-24 22:00N 38°12' W 013°24'6215.4 290 / 231012.110.8 16.012.415.0
2019-Apr-24 18:00N 38°06' W 014°42'16123.0 290 / 251009.610.8 17.213.315.0
2019-Apr-24 11:00N 38°00' W 018°06'24220.2 280 / 241008.210.8 19.514.415.0
2019-Apr-23 23:00N 37°42' W 023°12'930.6 290 / 241012.910.8 17.514.916.0
2019-Apr-23 22:41N 37°44' W 023°23'421.2
2019-Apr-23 22:30N 37°43' W 023°29'1021.2
2019-Apr-23 22:01N 37°43' W 023°42'1121.7
2019-Apr-23 21:30N 37°42' W 023°55'1121.6
2019-Apr-23 21:00N 37°41' W 024°09'1121.3
2019-Apr-23 20:31N 37°41' W 024°22'1121.3
2019-Apr-23 20:01N 37°40' W 024°36'1121.2
2019-Apr-23 19:31N 37°39' W 024°49'1121.1
2019-Apr-23 19:00N 37°39' W 025°03'1122.3
2019-Apr-23 18:30N 37°39' W 025°17'1121.2
2019-Apr-23 18:00N 37°39' W 025°30'816.9
2019-Apr-23 17:31N 37°44' W 025°39'1 1.2
2019-Apr-23 17:01N 37°44' W 025°40'0 0.0
2019-Apr-23 16:31N 37°44' W 025°40'0 0.0
2019-Apr-23 16:01N 37°44' W 025°40'0 0.0
2019-Apr-23 15:31N 37°44' W 025°40'0 0.0
2019-Apr-23 15:01N 37°44' W 025°40'0 0.0
2019-Apr-23 14:31N 37°44' W 025°40'0 0.0
2019-Apr-23 14:01N 37°44' W 025°40'0 0.0
2019-Apr-23 13:31N 37°44' W 025°40'0 0.0
2019-Apr-23 13:01N 37°44' W 025°40'0 0.0
2019-Apr-23 12:28N 37°44' W 025°40'0 0.0
2019-Apr-23 12:01N 37°44' W 025°40'0 0.0
2019-Apr-23 11:28N 37°44' W 025°40'0 0.0
2019-Apr-23 10:58N 37°44' W 025°40'0 0.0
2019-Apr-23 10:31N 37°44' W 025°40'0 0.0
2019-Apr-23 09:58N 37°44' W 025°40'0 0.0
2019-Apr-23 09:31N 37°44' W 025°40'0 0.0
2019-Apr-23 08:58N 37°44' W 025°40'0 0.0
2019-Apr-23 08:28N 37°44' W 025°40'0 0.0
2019-Apr-23 08:00N 37°44' W 025°40'1 1.2
2019-Apr-23 07:30N 37°44' W 025°39'4 8.3
2019-Apr-23 07:00N 37°41' W 025°35'713.5
2019-Apr-23 06:31N 37°36' W 025°40'815.0
2019-Apr-23 06:01N 37°32' W 025°48'714.5
2019-Apr-23 05:31N 37°28' W 025°55'815.0
2019-Apr-23 05:01N 37°24' W 026°04'815.3
2019-Apr-23 04:31N 37°20' W 026°12'815.9
2019-Apr-23 04:01N 37°15' W 026°20'917.3
2019-Apr-23 03:30N 37°11' W 026°29'917.4
2019-Apr-23 03:00N 37°06' W 026°39'2157.9
2019-Apr-23 03:00N 37°06' W 026°36'1020.8 320 / 221020.710.8 19.0 7.218.0
2019-Apr-23 02:30N 37°02' W 026°48'816.5
2019-Apr-23 02:01N 36°57' W 026°56'816.4
2019-Apr-23 01:30N 36°53' W 027°05'917.2
2019-Apr-23 01:00N 36°48' W 027°14'918.0
2019-Apr-23 00:30N 36°44' W 027°24'918.3
2019-Apr-23 00:00N 36°39' W 027°33'918.1
2019-Apr-22 23:29N 36°34' W 027°43'918.6
2019-Apr-22 23:00N 36°29' W 027°53'5753.3
2019-Apr-22 23:00N 36°24' W 027°54'914.2 350 / 101023.210.8 16.013.018.0
2019-Apr-22 22:24N 36°23' W 028°05'718.3
2019-Apr-22 22:00N 36°19' W 028°12'1017.8
2019-Apr-22 21:27N 36°14' W 028°22'3817.9
2019-Apr-22 19:19N 35°54' W 029°02'619.3
2019-Apr-22 19:00N 35°48' W 029°06'394.8 050 / 261023.210.8 16.013.018.0
2019-Apr-22 18:57N 35°50' W 029°09'1017.2
2019-Apr-22 18:23N 35°45' W 029°19'717.8
2019-Apr-22 17:58N 35°41' W 029°27'35819.9
2019-Apr-22 00:00N 32°42' W 035°42'7819.5 050 / 261027.010.8 19.8 7.620.0
2019-Apr-21 20:00N 32°24' W 037°12'14821.2 100 / 271024.210.8 20.517.321.0
2019-Apr-21 13:00N 31°42' W 040°00'9418.8 040 / 171021.310.8 19.0 7.220.0
2019-Apr-21 08:00N 31°24' W 041°48'14821.2 080 / 181018.310.8 18.014.621.0
2019-Apr-21 01:00N 30°48' W 044°36'12020.0 010 / 271021.510.8 18.014.921.0
2019-Apr-20 19:00N 30°30' W 046°54'19219.2 020 / 321028.010.8 18.016.321.0
2019-Apr-20 09:00N 30°18' W 050°36'7324.2 030 / 301028.910.8 17.514.022.0
2019-Apr-20 06:00N 30°18' W 052°00'9318.7 040 / 271028.710.8 19.015.622.0
2019-Apr-20 01:00N 30°12' W 053°48'16120.1 030 / 221029.910.8 18.515.122.0
2019-Apr-19 17:00N 30°06' W 056°54'8320.8 030 / 271028.910.8 20.018.423.0
2019-Apr-19 13:00N 30°06' W 058°30'21519.6 090 / 171027.110.8 20.215.122.0
2019-Apr-19 02:00N 29°12' W 062°30'7618.9 050 / 221025.310.8 21.017.823.0
2019-Apr-18 22:00N 28°54' W 063°54'6120.2 060 / 221023.110.8 21.017.823.0
2019-Apr-18 19:00N 28°36' W 065°00'9318.6 060 / 181022.810.8 22.018.025.0
2019-Apr-18 14:00N 28°12' W 066°42'21419.5 070 / 221022.910.8 23.018.325.0
2019-Apr-18 03:00N 27°18' W 070°36'7919.6 070 / 171019.810.8 23.019.125.0
2019-Apr-17 23:00N 26°54' W 072°00'23419.5 060 / 251018.310.8 23.020.425.0
2019-Apr-17 11:00N 25°54' W 076°12'15719.6 050 / 171018.510.8 23.019.125.0
2019-Apr-17 03:00N 26°06' W 079°06'852.0 050 / 171020.310.8 23.518.826.0
2019-Apr-17 02:50N 26°11' W 079°13'618.4
2019-Apr-17 02:31N 26°10' W 079°20'917.4
2019-Apr-17 02:01N 26°09' W 079°30'918.0
2019-Apr-17 01:31N 26°08' W 079°40'918.0
2019-Apr-17 01:01N 26°07' W 079°50'917.2
2019-Apr-17 00:31N 26°06' W 079°59'613.0
2019-Apr-17 00:00N 26°06' W 080°06'1 1.5
2019-Apr-16 23:31N 26°05' W 080°07'1 2.9
2019-Apr-16 23:01N 26°06' W 080°05'510.4
2019-Apr-16 22:31N 26°05' W 079°60'3 5.5
2019-Apr-16 22:01N 26°05' W 080°03'4 7.7
2019-Apr-16 21:30N 26°05' W 080°07'0 0.3
2019-Apr-16 20:59N 26°05' W 080°07'0 0.0
2019-Apr-16 20:29N 26°05' W 080°07'0 0.0
2019-Apr-16 19:59N 26°05' W 080°07'0 0.0
2019-Apr-16 19:29N 26°05' W 080°07'0 0.0
2019-Apr-16 18:59N 26°05' W 080°07'0 0.0
2019-Apr-16 18:29N 26°05' W 080°07'0 0.0
2019-Apr-16 17:59N 26°05' W 080°07'0 0.0
2019-Apr-16 17:28N 26°05' W 080°07'0 0.0
2019-Apr-16 16:59N 26°05' W 080°07'0 0.0
2019-Apr-16 16:28N 26°05' W 080°07'0 0.0
2019-Apr-16 15:59N 26°05' W 080°07'0 0.0
2019-Apr-16 15:29N 26°05' W 080°07'0 0.0
2019-Apr-16 14:58N 26°05' W 080°07'0 0.0
2019-Apr-16 14:29N 26°05' W 080°07'0 0.0
2019-Apr-16 13:59N 26°05' W 080°07'0 0.0
2019-Apr-16 13:29N 26°05' W 080°07'0 0.0
2019-Apr-16 12:59N 26°05' W 080°07'0 0.0
2019-Apr-16 12:29N 26°05' W 080°07'0 0.0
2019-Apr-16 11:59N 26°05' W 080°07'0 0.0
2019-Apr-16 11:29N 26°05' W 080°07'0 0.0
2019-Apr-16 10:59N 26°05' W 080°07'0 0.1
2019-Apr-16 10:30N 26°05' W 080°07'3 6.7
2019-Apr-16 10:00N 26°06' W 080°03'611.9
2019-Apr-16 09:30N 26°06' W 079°57'713.4
2019-Apr-16 09:00N 26°07' W 079°49'713.0
2019-Apr-16 08:30N 26°08' W 079°42'612.8
2019-Apr-16 08:00N 26°09' W 079°35'713.5
2019-Apr-16 07:31N 26°09' W 079°28'815.1
2019-Apr-16 07:00N 26°10' W 079°19'4226.3
2019-Apr-16 07:00N 26°06' W 079°18'5418.1 040 / 171018.210.8 24.020.226.0
2019-Apr-16 04:00N 26°00' W 078°18'3412.4 010 / 231018.410.8 24.820.626.0
2019-Apr-16 01:16N 25°53' W 077°41'3917.1
2019-Apr-15 23:00N 25°42' W 077°00'5914.8 360 / 281015.410.8 25.523.326.0
2019-Apr-15 19:00N 25°18' W 076°00'   190 / 281016.010.8 26.522.826.0
Track history (hours):
 
Tides and Currents Weather Stations Pressure Air Temp Water Temp Dewpoint Dewpoint Depression Visibility Wind Speed Wind Dir Waves Ship Positions

Crown Princess

Last reported at 2019-Apr-25 15:29 UTC. Time now 2019-Apr-25 15:49 UTC.
Position N 38°42' W 009°08'.

Type: Passenger vessel. MMSI: 310500000.

Date/timePositionNaut miles runAvg speedWind from/ knotsBaromVisibWave heightAir tempDewpointWater temp
2019-Apr-25 15:29N 38°42' W 009°08'0 0.0
2019-Apr-25 14:59N 38°42' W 009°08'0 0.0
2019-Apr-25 14:29N 38°42' W 009°08'0 0.0
2019-Apr-25 13:59N 38°42' W 009°08'0 0.0
2019-Apr-25 13:29N 38°42' W 009°08'0 0.0
2019-Apr-25 12:59N 38°42' W 009°08'0 0.0
2019-Apr-25 12:29N 38°42' W 009°08'0 0.0
2019-Apr-25 11:59N 38°42' W 009°08'0 0.0
2019-Apr-25 11:29N 38°42' W 009°08'0 0.0
2019-Apr-25 10:59N 38°42' W 009°08'0 0.0
2019-Apr-25 10:29N 38°42' W 009°08'0 0.4
2019-Apr-25 10:00N 38°43' W 009°07'2 4.9
2019-Apr-25 09:30N 38°41' W 009°10'510.0
2019-Apr-25 09:00N 38°41' W 009°17'714.4
2019-Apr-25 08:30N 38°36' W 009°23'817.0
2019-Apr-25 08:00N 38°31' W 009°31'816.7
2019-Apr-25 07:30N 38°28' W 009°42'918.2
2019-Apr-25 07:00N 38°27' W 009°53'918.2
2019-Apr-25 06:30N 38°26' W 010°05'918.0
2019-Apr-25 06:00N 38°23' W 010°16'14818.5
2019-Apr-24 22:00N 38°12' W 013°24'6215.4 290 / 231012.110.8 16.012.415.0
2019-Apr-24 18:00N 38°06' W 014°42'16123.0 290 / 251009.610.8 17.213.315.0
2019-Apr-24 11:00N 38°00' W 018°06'24220.2 280 / 241008.210.8 19.514.415.0
2019-Apr-23 23:00N 37°42' W 023°12'930.6 290 / 241012.910.8 17.514.916.0
2019-Apr-23 22:41N 37°44' W 023°23'421.2
2019-Apr-23 22:30N 37°43' W 023°29'1021.2
2019-Apr-23 22:01N 37°43' W 023°42'1121.7
2019-Apr-23 21:30N 37°42' W 023°55'1121.6
2019-Apr-23 21:00N 37°41' W 024°09'1121.3
2019-Apr-23 20:31N 37°41' W 024°22'1121.3
2019-Apr-23 20:01N 37°40' W 024°36'1121.2
2019-Apr-23 19:31N 37°39' W 024°49'1121.1
2019-Apr-23 19:00N 37°39' W 025°03'1122.3
2019-Apr-23 18:30N 37°39' W 025°17'1121.2
2019-Apr-23 18:00N 37°39' W 025°30'816.9
2019-Apr-23 17:31N 37°44' W 025°39'1 1.2
2019-Apr-23 17:01N 37°44' W 025°40'0 0.0
2019-Apr-23 16:31N 37°44' W 025°40'0 0.0
2019-Apr-23 16:01N 37°44' W 025°40'0 0.0
2019-Apr-23 15:31N 37°44' W 025°40'0 0.0
2019-Apr-23 15:01N 37°44' W 025°40'0 0.0
2019-Apr-23 14:31N 37°44' W 025°40'0 0.0
2019-Apr-23 14:01N 37°44' W 025°40'0 0.0
2019-Apr-23 13:31N 37°44' W 025°40'0 0.0
2019-Apr-23 13:01N 37°44' W 025°40'0 0.0
2019-Apr-23 12:28N 37°44' W 025°40'0 0.0
2019-Apr-23 12:01N 37°44' W 025°40'0 0.0
2019-Apr-23 11:28N 37°44' W 025°40'0 0.0
2019-Apr-23 10:58N 37°44' W 025°40'0 0.0
2019-Apr-23 10:31N 37°44' W 025°40'0 0.0
2019-Apr-23 09:58N 37°44' W 025°40'0 0.0
2019-Apr-23 09:31N 37°44' W 025°40'0 0.0
2019-Apr-23 08:58N 37°44' W 025°40'0 0.0
2019-Apr-23 08:28N 37°44' W 025°40'0 0.0
2019-Apr-23 08:00N 37°44' W 025°40'1 1.2
2019-Apr-23 07:30N 37°44' W 025°39'4 8.3
2019-Apr-23 07:00N 37°41' W 025°35'713.5
2019-Apr-23 06:31N 37°36' W 025°40'815.0
2019-Apr-23 06:01N 37°32' W 025°48'714.5
2019-Apr-23 05:31N 37°28' W 025°55'815.0
2019-Apr-23 05:01N 37°24' W 026°04'815.3
2019-Apr-23 04:31N 37°20' W 026°12'815.9
2019-Apr-23 04:01N 37°15' W 026°20'917.3
2019-Apr-23 03:30N 37°11' W 026°29'917.4
2019-Apr-23 03:00N 37°06' W 026°39'2157.9
2019-Apr-23 03:00N 37°06' W 026°36'1020.8 320 / 221020.710.8 19.0 7.218.0
2019-Apr-23 02:30N 37°02' W 026°48'816.5
2019-Apr-23 02:01N 36°57' W 026°56'816.4
2019-Apr-23 01:30N 36°53' W 027°05'917.2
2019-Apr-23 01:00N 36°48' W 027°14'918.0
2019-Apr-23 00:30N 36°44' W 027°24'918.3
2019-Apr-23 00:00N 36°39' W 027°33'918.1
2019-Apr-22 23:29N 36°34' W 027°43'918.6
2019-Apr-22 23:00N 36°29' W 027°53'5753.3
2019-Apr-22 23:00N 36°24' W 027°54'914.2 350 / 101023.210.8 16.013.018.0
2019-Apr-22 22:24N 36°23' W 028°05'718.3
2019-Apr-22 22:00N 36°19' W 028°12'1017.8
2019-Apr-22 21:27N 36°14' W 028°22'3817.9
2019-Apr-22 19:19N 35°54' W 029°02'619.3
2019-Apr-22 19:00N 35°48' W 029°06'394.8 050 / 261023.210.8 16.013.018.0
2019-Apr-22 18:57N 35°50' W 029°09'1017.2
2019-Apr-22 18:23N 35°45' W 029°19'717.8
2019-Apr-22 17:58N 35°41' W 029°27'35819.9
2019-Apr-22 00:00N 32°42' W 035°42'7819.5 050 / 261027.010.8 19.8 7.620.0
2019-Apr-21 20:00N 32°24' W 037°12'14821.2 100 / 271024.210.8 20.517.321.0
2019-Apr-21 13:00N 31°42' W 040°00'9418.8 040 / 171021.310.8 19.0 7.220.0
2019-Apr-21 08:00N 31°24' W 041°48'14821.2 080 / 181018.310.8 18.014.621.0
2019-Apr-21 01:00N 30°48' W 044°36'12020.0 010 / 271021.510.8 18.014.921.0
2019-Apr-20 19:00N 30°30' W 046°54'19219.2 020 / 321028.010.8 18.016.321.0
2019-Apr-20 09:00N 30°18' W 050°36'7324.2 030 / 301028.910.8 17.514.022.0
2019-Apr-20 06:00N 30°18' W 052°00'9318.7 040 / 271028.710.8 19.015.622.0
2019-Apr-20 01:00N 30°12' W 053°48'16120.1 030 / 221029.910.8 18.515.122.0
2019-Apr-19 17:00N 30°06' W 056°54'8320.8 030 / 271028.910.8 20.018.423.0
2019-Apr-19 13:00N 30°06' W 058°30'21519.6 090 / 171027.110.8 20.215.122.0
2019-Apr-19 02:00N 29°12' W 062°30'7618.9 050 / 221025.310.8 21.017.823.0
2019-Apr-18 22:00N 28°54' W 063°54'6120.2 060 / 221023.110.8 21.017.823.0
2019-Apr-18 19:00N 28°36' W 065°00'9318.6 060 / 181022.810.8 22.018.025.0
2019-Apr-18 14:00N 28°12' W 066°42'21419.5 070 / 221022.910.8 23.018.325.0
2019-Apr-18 03:00N 27°18' W 070°36'7919.6 070 / 171019.810.8 23.019.125.0
2019-Apr-17 23:00N 26°54' W 072°00'23419.5 060 / 251018.310.8 23.020.425.0
2019-Apr-17 11:00N 25°54' W 076°12'15719.6 050 / 171018.510.8 23.019.125.0
2019-Apr-17 03:00N 26°06' W 079°06'852.0 050 / 171020.310.8 23.518.826.0
2019-Apr-17 02:50N 26°11' W 079°13'618.4
2019-Apr-17 02:31N 26°10' W 079°20'917.4
2019-Apr-17 02:01N 26°09' W 079°30'918.0
2019-Apr-17 01:31N 26°08' W 079°40'918.0
2019-Apr-17 01:01N 26°07' W 079°50'917.2
2019-Apr-17 00:31N 26°06' W 079°59'613.0
2019-Apr-17 00:00N 26°06' W 080°06'1 1.5
2019-Apr-16 23:31N 26°05' W 080°07'1 2.9
2019-Apr-16 23:01N 26°06' W 080°05'510.4
2019-Apr-16 22:31N 26°05' W 079°60'3 5.5
2019-Apr-16 22:01N 26°05' W 080°03'4 7.7
2019-Apr-16 21:30N 26°05' W 080°07'0 0.3
2019-Apr-16 20:59N 26°05' W 080°07'0 0.0
2019-Apr-16 20:29N 26°05' W 080°07'0 0.0
2019-Apr-16 19:59N 26°05' W 080°07'0 0.0
2019-Apr-16 19:29N 26°05' W 080°07'0 0.0
2019-Apr-16 18:59N 26°05' W 080°07'0 0.0
2019-Apr-16 18:29N 26°05' W 080°07'0 0.0
2019-Apr-16 17:59N 26°05' W 080°07'0 0.0
2019-Apr-16 17:28N 26°05' W 080°07'0 0.0
2019-Apr-16 16:59N 26°05' W 080°07'0 0.0
2019-Apr-16 16:28N 26°05' W 080°07'0 0.0
2019-Apr-16 15:59N 26°05' W 080°07'0 0.0
2019-Apr-16 15:29N 26°05' W 080°07'0 0.0
2019-Apr-16 14:58N 26°05' W 080°07'0 0.0
2019-Apr-16 14:29N 26°05' W 080°07'0 0.0
2019-Apr-16 13:59N 26°05' W 080°07'0 0.0
2019-Apr-16 13:29N 26°05' W 080°07'0 0.0
2019-Apr-16 12:59N 26°05' W 080°07'0 0.0
2019-Apr-16 12:29N 26°05' W 080°07'0 0.0
2019-Apr-16 11:59N 26°05' W 080°07'0 0.0
2019-Apr-16 11:29N 26°05' W 080°07'0 0.0
2019-Apr-16 10:59N 26°05' W 080°07'0 0.1
2019-Apr-16 10:30N 26°05' W 080°07'3 6.7
2019-Apr-16 10:00N 26°06' W 080°03'611.9
2019-Apr-16 09:30N 26°06' W 079°57'713.4
2019-Apr-16 09:00N 26°07' W 079°49'713.0
2019-Apr-16 08:30N 26°08' W 079°42'612.8
2019-Apr-16 08:00N 26°09' W 079°35'713.5
2019-Apr-16 07:31N 26°09' W 079°28'815.1
2019-Apr-16 07:00N 26°10' W 079°19'4226.3
2019-Apr-16 07:00N 26°06' W 079°18'5418.1 040 / 171018.210.8 24.020.226.0
2019-Apr-16 04:00N 26°00' W 078°18'3412.4 010 / 231018.410.8 24.820.626.0
2019-Apr-16 01:16N 25°53' W 077°41'3917.1
2019-Apr-15 23:00N 25°42' W 077°00'5914.8 360 / 281015.410.8 25.523.326.0
2019-Apr-15 19:00N 25°18' W 076°00'   190 / 281016.010.8 26.522.826.0

Dump ship's entire track history